Prairie Lake, Minnesota
Current Conditions -  °F | °C
As of 11:56 PM on Wednesday 17 Dec 2014 (Local Time) from KCOQ Reporting Station
Light Snow Light Snow  
Wind Chill: 14°   Ceiling: 1300
Heat Index: 14°   Visibility: 10mi
Dew Point: 10°   Wind: 3mph
Humidity: 86%   Direction: 280°W
Pressure: 30.3"   Gusts: NA
Location:  46.9584°N, 92.9445°W
Report Text: KCOQ 180556Z AUTO 28003KT 10SM -SN OVC013 M10/M12 A3030 RMK AO2
Loading
Personal Weather Stations






























Interactive Weather Map New forecast layout! Learn more

10-Day Weather Forecast

Advertisements
Track Severe Weather on mobile